Terminal Aerodrome Forecast
Issued by NWS

Home | Current Version | Previous Version | Text Only | Print | Product List | Glossary On
Versions: 1 2 3 4 5 6 7 8 9 10 11 12 13 14 15 16 17 18 19 20 21 22 23
045
FTUS43 KOAX 301732
TAFBFF
TAF
KBFF 301732Z 3018/0118 36018G26KT 6SM -RA OVC020
     FM010500 35009KT 3SM -RASN OVC008
     FM011200 35009KT P6SM OVC015=

USA.gov is the U.S. government's official web portal to all federal, state and local government web resources and services.